sensor_id;sensor_type;location;lat;lon;timestamp;P1;durP1;ratioP1;P2;durP2;ratioP2
80930;SDS011;70388;42.698;23.324;2023-12-20T00:01:22;205.15;;;105.82;;
80930;SDS011;70388;42.698;23.324;2023-12-20T00:03:48;203.70;;;106.93;;
80930;SDS011;70388;42.698;23.324;2023-12-20T00:06:14;196.07;;;100.40;;
80930;SDS011;70388;42.698;23.324;2023-12-20T00:08:40;163.07;;;77.10;;
80930;SDS011;70388;42.698;23.324;2023-12-20T00:11:05;139.32;;;71.43;;
80930;SDS011;70388;42.698;23.324;2023-12-20T00:13:31;171.23;;;93.28;;
80930;SDS011;70388;42.698;23.324;2023-12-20T00:15:57;195.82;;;102.25;;
80930;SDS011;70388;42.698;23.324;2023-12-20T00:18:23;210.95;;;111.25;;
80930;SDS011;70388;42.698;23.324;2023-12-20T00:20:48;226.98;;;115.28;;
80930;SDS011;70388;42.698;23.324;2023-12-20T00:23:14;228.93;;;119.53;;
80930;SDS011;70388;42.698;23.324;2023-12-20T00:25:40;230.00;;;119.95;;
80930;SDS011;70388;42.698;23.324;2023-12-20T00:28:06;223.30;;;119.40;;
80930;SDS011;70388;42.698;23.324;2023-12-20T00:30:32;223.05;;;120.63;;
80930;SDS011;70388;42.698;23.324;2023-12-20T00:32:57;198.40;;;98.35;;
80930;SDS011;70388;42.698;23.324;2023-12-20T00:35:23;207.73;;;102.70;;
80930;SDS011;70388;42.698;23.324;2023-12-20T00:37:49;229.07;;;116.63;;
80930;SDS011;70388;42.698;23.324;2023-12-20T00:40:15;224.70;;;114.25;;
80930;SDS011;70388;42.698;23.324;2023-12-20T00:42:41;245.10;;;120.07;;
80930;SDS011;70388;42.698;23.324;2023-12-20T00:45:06;243.88;;;124.00;;
80930;SDS011;70388;42.698;23.324;2023-12-20T00:47:33;251.55;;;123.72;;
80930;SDS011;70388;42.698;23.324;2023-12-20T00:49:58;246.07;;;125.30;;
80930;SDS011;70388;42.698;23.324;2023-12-20T00:52:24;256.58;;;131.23;;
80930;SDS011;70388;42.698;23.324;2023-12-20T00:54:50;257.80;;;129.23;;
80930;SDS011;70388;42.698;23.324;2023-12-20T00:57:17;257.33;;;129.98;;
80930;SDS011;70388;42.698;23.324;2023-12-20T00:59:42;263.88;;;134.18;;
80930;SDS011;70388;42.698;23.324;2023-12-20T01:02:08;278.95;;;134.82;;
80930;SDS011;70388;42.698;23.324;2023-12-20T01:04:35;271.85;;;136.98;;
80930;SDS011;70388;42.698;23.324;2023-12-20T01:07:00;272.70;;;137.90;;
80930;SDS011;70388;42.698;23.324;2023-12-20T01:09:27;286.58;;;138.88;;
80930;SDS011;70388;42.698;23.324;2023-12-20T01:11:52;272.92;;;137.57;;
80930;SDS011;70388;42.698;23.324;2023-12-20T01:14:18;278.95;;;136.45;;
80930;SDS011;70388;42.698;23.324;2023-12-20T01:16:44;263.77;;;132.65;;
80930;SDS011;70388;42.698;23.324;2023-12-20T01:19:10;261.42;;;131.65;;
80930;SDS011;70388;42.698;23.324;2023-12-20T01:21:36;257.30;;;132.25;;
80930;SDS011;70388;42.698;23.324;2023-12-20T01:24:02;272.70;;;132.05;;
80930;SDS011;70388;42.698;23.324;2023-12-20T01:26:27;264.08;;;129.30;;
80930;SDS011;70388;42.698;23.324;2023-12-20T01:28:53;260.67;;;125.63;;
80930;SDS011;70388;42.698;23.324;2023-12-20T01:31:19;241.98;;;121.95;;
80930;SDS011;70388;42.698;23.324;2023-12-20T01:33:45;233.77;;;117.15;;
80930;SDS011;70388;42.698;23.324;2023-12-20T01:36:11;244.35;;;120.72;;
80930;SDS011;70388;42.698;23.324;2023-12-20T01:38:37;213.38;;;104.30;;
80930;SDS011;70388;42.698;23.324;2023-12-20T01:41:03;210.32;;;104.50;;
80930;SDS011;70388;42.698;23.324;2023-12-20T01:43:29;214.05;;;98.30;;
80930;SDS011;70388;42.698;23.324;2023-12-20T01:45:56;195.00;;;98.50;;
80930;SDS011;70388;42.698;23.324;2023-12-20T01:48:23;192.07;;;97.18;;
80930;SDS011;70388;42.698;23.324;2023-12-20T01:50:50;206.07;;;92.97;;
80930;SDS011;70388;42.698;23.324;2023-12-20T01:53:17;195.23;;;92.13;;
80930;SDS011;70388;42.698;23.324;2023-12-20T01:55:46;166.88;;;84.07;;
80930;SDS011;70388;42.698;23.324;2023-12-20T01:58:13;198.73;;;93.38;;
80930;SDS011;70388;42.698;23.324;2023-12-20T02:00:40;209.32;;;102.03;;
80930;SDS011;70388;42.698;23.324;2023-12-20T02:03:06;208.60;;;102.20;;
80930;SDS011;70388;42.698;23.324;2023-12-20T02:05:33;213.50;;;101.63;;
80930;SDS011;70388;42.698;23.324;2023-12-20T02:08:00;201.48;;;96.30;;
80930;SDS011;70388;42.698;23.324;2023-12-20T02:10:26;210.57;;;103.43;;
80930;SDS011;70388;42.698;23.324;2023-12-20T02:12:53;196.80;;;93.50;;
80930;SDS011;70388;42.698;23.324;2023-12-20T02:15:18;211.52;;;95.53;;
80930;SDS011;70388;42.698;23.324;2023-12-20T02:17:45;186.57;;;91.75;;
80930;SDS011;70388;42.698;23.324;2023-12-20T02:20:12;182.85;;;84.00;;
80930;SDS011;70388;42.698;23.324;2023-12-20T02:22:38;177.27;;;80.57;;
80930;SDS011;70388;42.698;23.324;2023-12-20T02:25:04;153.10;;;74.32;;
80930;SDS011;70388;42.698;23.324;2023-12-20T02:27:30;177.38;;;76.32;;
80930;SDS011;70388;42.698;23.324;2023-12-20T02:29:56;149.88;;;72.97;;
80930;SDS011;70388;42.698;23.324;2023-12-20T02:32:22;139.48;;;69.05;;
80930;SDS011;70388;42.698;23.324;2023-12-20T02:34:52;153.50;;;65.40;;
80930;SDS011;70388;42.698;23.324;2023-12-20T02:37:18;149.38;;;66.57;;
80930;SDS011;70388;42.698;23.324;2023-12-20T02:39:43;144.88;;;65.85;;
80930;SDS011;70388;42.698;23.324;2023-12-20T02:42:09;135.70;;;60.60;;
80930;SDS011;70388;42.698;23.324;2023-12-20T02:44:35;137.32;;;62.22;;
80930;SDS011;70388;42.698;23.324;2023-12-20T02:47:01;128.77;;;57.30;;
80930;SDS011;70388;42.698;23.324;2023-12-20T02:49:27;120.68;;;55.85;;
80930;SDS011;70388;42.698;23.324;2023-12-20T02:51:53;121.90;;;54.75;;
80930;SDS011;70388;42.698;23.324;2023-12-20T02:54:19;126.88;;;53.55;;
80930;SDS011;70388;42.698;23.324;2023-12-20T02:56:44;131.43;;;54.97;;
80930;SDS011;70388;42.698;23.324;2023-12-20T02:59:10;136.43;;;51.28;;
80930;SDS011;70388;42.698;23.324;2023-12-20T03:01:41;111.70;;;50.88;;
80930;SDS011;70388;42.698;23.324;2023-12-20T03:04:08;140.30;;;54.50;;
80930;SDS011;70388;42.698;23.324;2023-12-20T03:06:33;139.18;;;53.42;;
80930;SDS011;70388;42.698;23.324;2023-12-20T03:08:59;156.45;;;54.67;;
80930;SDS011;70388;42.698;23.324;2023-12-20T03:11:28;143.90;;;54.95;;
80930;SDS011;70388;42.698;23.324;2023-12-20T03:13:54;133.50;;;54.65;;
80930;SDS011;70388;42.698;23.324;2023-12-20T03:16:20;144.35;;;55.10;;
80930;SDS011;70388;42.698;23.324;2023-12-20T03:18:46;129.25;;;54.05;;
80930;SDS011;70388;42.698;23.324;2023-12-20T03:21:12;137.05;;;55.03;;
80930;SDS011;70388;42.698;23.324;2023-12-20T03:23:37;137.27;;;57.78;;
80930;SDS011;70388;42.698;23.324;2023-12-20T03:26:05;161.77;;;64.57;;
80930;SDS011;70388;42.698;23.324;2023-12-20T03:28:32;134.63;;;56.97;;
80930;SDS011;70388;42.698;23.324;2023-12-20T03:30:58;123.18;;;52.45;;
80930;SDS011;70388;42.698;23.324;2023-12-20T03:33:24;127.65;;;55.85;;
80930;SDS011;70388;42.698;23.324;2023-12-20T03:35:50;118.78;;;51.53;;
80930;SDS011;70388;42.698;23.324;2023-12-20T03:38:16;139.30;;;56.85;;
80930;SDS011;70388;42.698;23.324;2023-12-20T03:40:41;136.48;;;55.00;;
80930;SDS011;70388;42.698;23.324;2023-12-20T03:43:07;135.70;;;54.83;;
80930;SDS011;70388;42.698;23.324;2023-12-20T03:45:33;126.18;;;53.92;;
80930;SDS011;70388;42.698;23.324;2023-12-20T03:47:59;124.53;;;50.90;;
80930;SDS011;70388;42.698;23.324;2023-12-20T03:50:25;116.57;;;47.65;;
80930;SDS011;70388;42.698;23.324;2023-12-20T03:52:51;123.28;;;51.10;;
80930;SDS011;70388;42.698;23.324;2023-12-20T03:55:17;125.47;;;51.55;;
80930;SDS011;70388;42.698;23.324;2023-12-20T03:57:43;125.82;;;52.63;;
80930;SDS011;70388;42.698;23.324;2023-12-20T04:00:10;136.43;;;55.05;;
80930;SDS011;70388;42.698;23.324;2023-12-20T04:02:39;140.45;;;54.50;;
80930;SDS011;70388;42.698;23.324;2023-12-20T04:05:06;134.55;;;55.17;;
80930;SDS011;70388;42.698;23.324;2023-12-20T04:07:33;127.32;;;50.42;;
80930;SDS011;70388;42.698;23.324;2023-12-20T04:10:00;122.47;;;54.47;;
80930;SDS011;70388;42.698;23.324;2023-12-20T04:12:26;122.63;;;55.35;;
80930;SDS011;70388;42.698;23.324;2023-12-20T04:14:54;131.13;;;52.42;;
80930;SDS011;70388;42.698;23.324;2023-12-20T04:17:20;123.43;;;51.03;;
80930;SDS011;70388;42.698;23.324;2023-12-20T04:19:48;137.13;;;54.05;;
80930;SDS011;70388;42.698;23.324;2023-12-20T04:22:14;117.30;;;50.50;;
80930;SDS011;70388;42.698;23.324;2023-12-20T04:24:40;120.90;;;47.50;;
80930;SDS011;70388;42.698;23.324;2023-12-20T04:27:07;118.32;;;47.95;;
80930;SDS011;70388;42.698;23.324;2023-12-20T04:29:33;125.93;;;50.33;;
80930;SDS011;70388;42.698;23.324;2023-12-20T04:31:59;124.38;;;50.03;;
80930;SDS011;70388;42.698;23.324;2023-12-20T04:34:25;119.78;;;49.40;;
80930;SDS011;70388;42.698;23.324;2023-12-20T04:36:51;131.20;;;51.13;;
80930;SDS011;70388;42.698;23.324;2023-12-20T04:39:17;132.27;;;52.75;;
80930;SDS011;70388;42.698;23.324;2023-12-20T04:41:43;124.82;;;51.00;;
80930;SDS011;70388;42.698;23.324;2023-12-20T04:44:08;104.15;;;47.30;;
80930;SDS011;70388;42.698;23.324;2023-12-20T04:46:34;122.30;;;52.03;;
80930;SDS011;70388;42.698;23.324;2023-12-20T04:49:00;140.07;;;55.67;;
80930;SDS011;70388;42.698;23.324;2023-12-20T04:51:26;136.23;;;55.67;;
80930;SDS011;70388;42.698;23.324;2023-12-20T04:53:52;127.25;;;52.90;;
80930;SDS011;70388;42.698;23.324;2023-12-20T04:56:18;103.70;;;47.40;;
80930;SDS011;70388;42.698;23.324;2023-12-20T04:58:44;119.97;;;47.83;;
80930;SDS011;70388;42.698;23.324;2023-12-20T05:01:10;125.80;;;50.03;;
80930;SDS011;70388;42.698;23.324;2023-12-20T05:03:37;120.43;;;49.45;;
80930;SDS011;70388;42.698;23.324;2023-12-20T05:06:02;110.13;;;49.20;;
80930;SDS011;70388;42.698;23.324;2023-12-20T05:08:28;112.13;;;46.60;;
80930;SDS011;70388;42.698;23.324;2023-12-20T05:10:54;109.43;;;46.97;;
80930;SDS011;70388;42.698;23.324;2023-12-20T05:13:20;110.25;;;49.42;;
80930;SDS011;70388;42.698;23.324;2023-12-20T05:15:46;82.80;;;36.92;;
80930;SDS011;70388;42.698;23.324;2023-12-20T05:18:12;105.45;;;44.47;;
80930;SDS011;70388;42.698;23.324;2023-12-20T05:20:39;73.38;;;30.48;;
80930;SDS011;70388;42.698;23.324;2023-12-20T05:23:05;113.15;;;46.20;;
80930;SDS011;70388;42.698;23.324;2023-12-20T05:25:31;104.20;;;45.90;;
80930;SDS011;70388;42.698;23.324;2023-12-20T05:27:57;102.93;;;45.90;;
80930;SDS011;70388;42.698;23.324;2023-12-20T05:30:23;113.72;;;49.05;;
80930;SDS011;70388;42.698;23.324;2023-12-20T05:32:48;111.38;;;46.55;;
80930;SDS011;70388;42.698;23.324;2023-12-20T05:35:14;95.47;;;45.85;;
80930;SDS011;70388;42.698;23.324;2023-12-20T05:37:41;113.03;;;46.30;;
80930;SDS011;70388;42.698;23.324;2023-12-20T05:40:07;106.30;;;43.38;;
80930;SDS011;70388;42.698;23.324;2023-12-20T05:42:38;110.63;;;43.78;;
80930;SDS011;70388;42.698;23.324;2023-12-20T05:45:04;104.88;;;44.30;;
80930;SDS011;70388;42.698;23.324;2023-12-20T05:47:31;115.55;;;44.70;;
80930;SDS011;70388;42.698;23.324;2023-12-20T05:49:57;119.18;;;48.58;;
80930;SDS011;70388;42.698;23.324;2023-12-20T05:52:22;114.38;;;49.53;;
80930;SDS011;70388;42.698;23.324;2023-12-20T05:54:48;106.90;;;50.08;;
80930;SDS011;70388;42.698;23.324;2023-12-20T05:57:14;114.90;;;47.85;;
80930;SDS011;70388;42.698;23.324;2023-12-20T05:59:40;94.35;;;43.97;;
80930;SDS011;70388;42.698;23.324;2023-12-20T06:02:05;127.43;;;48.25;;
80930;SDS011;70388;42.698;23.324;2023-12-20T06:04:31;120.93;;;47.95;;
80930;SDS011;70388;42.698;23.324;2023-12-20T06:06:57;116.25;;;47.17;;
80930;SDS011;70388;42.698;23.324;2023-12-20T06:09:24;110.95;;;47.08;;
80930;SDS011;70388;42.698;23.324;2023-12-20T06:11:51;103.93;;;45.22;;
80930;SDS011;70388;42.698;23.324;2023-12-20T06:14:17;121.28;;;47.30;;
80930;SDS011;70388;42.698;23.324;2023-12-20T06:16:44;109.00;;;45.75;;
80930;SDS011;70388;42.698;23.324;2023-12-20T06:19:10;109.45;;;46.85;;
80930;SDS011;70388;42.698;23.324;2023-12-20T06:21:36;105.35;;;45.85;;
80930;SDS011;70388;42.698;23.324;2023-12-20T06:24:02;106.13;;;43.45;;
80930;SDS011;70388;42.698;23.324;2023-12-20T06:26:28;99.53;;;44.13;;
80930;SDS011;70388;42.698;23.324;2023-12-20T06:28:54;109.68;;;43.38;;
80930;SDS011;70388;42.698;23.324;2023-12-20T06:31:20;105.30;;;46.63;;
80930;SDS011;70388;42.698;23.324;2023-12-20T06:33:46;103.65;;;44.88;;
80930;SDS011;70388;42.698;23.324;2023-12-20T06:36:12;101.63;;;45.03;;
80930;SDS011;70388;42.698;23.324;2023-12-20T06:38:39;111.13;;;44.35;;
80930;SDS011;70388;42.698;23.324;2023-12-20T06:41:05;116.55;;;46.55;;
80930;SDS011;70388;42.698;23.324;2023-12-20T06:43:31;115.53;;;51.50;;
80930;SDS011;70388;42.698;23.324;2023-12-20T06:45:58;119.45;;;48.25;;
80930;SDS011;70388;42.698;23.324;2023-12-20T06:48:25;110.32;;;48.28;;
80930;SDS011;70388;42.698;23.324;2023-12-20T06:50:51;125.03;;;48.92;;
80930;SDS011;70388;42.698;23.324;2023-12-20T06:53:17;127.32;;;51.63;;
80930;SDS011;70388;42.698;23.324;2023-12-20T06:55:42;126.20;;;49.60;;
80930;SDS011;70388;42.698;23.324;2023-12-20T06:58:08;117.72;;;51.33;;
80930;SDS011;70388;42.698;23.324;2023-12-20T07:00:34;122.18;;;51.53;;
80930;SDS011;70388;42.698;23.324;2023-12-20T07:03:00;115.65;;;51.58;;
80930;SDS011;70388;42.698;23.324;2023-12-20T07:05:25;110.05;;;49.45;;
80930;SDS011;70388;42.698;23.324;2023-12-20T07:07:51;117.18;;;50.00;;
80930;SDS011;70388;42.698;23.324;2023-12-20T07:10:17;121.82;;;51.08;;
80930;SDS011;70388;42.698;23.324;2023-12-20T07:12:43;123.05;;;52.95;;
80930;SDS011;70388;42.698;23.324;2023-12-20T07:15:09;117.90;;;48.78;;
80930;SDS011;70388;42.698;23.324;2023-12-20T07:17:35;112.68;;;51.00;;
80930;SDS011;70388;42.698;23.324;2023-12-20T07:20:00;106.35;;;48.13;;
80930;SDS011;70388;42.698;23.324;2023-12-20T07:22:31;119.68;;;52.95;;
80930;SDS011;70388;42.698;23.324;2023-12-20T07:24:58;119.50;;;54.15;;
80930;SDS011;70388;42.698;23.324;2023-12-20T07:27:24;124.88;;;51.88;;
80930;SDS011;70388;42.698;23.324;2023-12-20T07:29:51;117.30;;;51.55;;
80930;SDS011;70388;42.698;23.324;2023-12-20T07:32:17;106.95;;;49.47;;
80930;SDS011;70388;42.698;23.324;2023-12-20T07:34:42;125.18;;;54.42;;
80930;SDS011;70388;42.698;23.324;2023-12-20T07:37:08;118.85;;;52.47;;
80930;SDS011;70388;42.698;23.324;2023-12-20T07:39:41;128.10;;;55.30;;
80930;SDS011;70388;42.698;23.324;2023-12-20T07:42:07;136.73;;;53.35;;
80930;SDS011;70388;42.698;23.324;2023-12-20T07:44:34;136.82;;;55.65;;
80930;SDS011;70388;42.698;23.324;2023-12-20T07:47:01;127.20;;;54.47;;
80930;SDS011;70388;42.698;23.324;2023-12-20T07:49:27;128.05;;;55.63;;
80930;SDS011;70388;42.698;23.324;2023-12-20T07:51:52;140.48;;;57.00;;
80930;SDS011;70388;42.698;23.324;2023-12-20T07:54:18;140.80;;;53.90;;
80930;SDS011;70388;42.698;23.324;2023-12-20T07:56:45;147.50;;;59.45;;
80930;SDS011;70388;42.698;23.324;2023-12-20T07:59:11;124.40;;;60.42;;
80930;SDS011;70388;42.698;23.324;2023-12-20T08:01:37;127.65;;;58.50;;
80930;SDS011;70388;42.698;23.324;2023-12-20T08:04:03;135.13;;;58.00;;
80930;SDS011;70388;42.698;23.324;2023-12-20T08:06:29;146.15;;;60.88;;
80930;SDS011;70388;42.698;23.324;2023-12-20T08:08:54;122.85;;;57.85;;
80930;SDS011;70388;42.698;23.324;2023-12-20T08:11:20;118.03;;;51.92;;
80930;SDS011;70388;42.698;23.324;2023-12-20T08:13:46;128.63;;;48.75;;
80930;SDS011;70388;42.698;23.324;2023-12-20T08:16:12;119.70;;;51.60;;
80930;SDS011;70388;42.698;23.324;2023-12-20T08:18:38;137.48;;;58.00;;
80930;SDS011;70388;42.698;23.324;2023-12-20T08:21:04;134.65;;;58.47;;
80930;SDS011;70388;42.698;23.324;2023-12-20T08:23:33;142.15;;;56.92;;
80930;SDS011;70388;42.698;23.324;2023-12-20T08:26:07;139.30;;;59.33;;
80930;SDS011;70388;42.698;23.324;2023-12-20T08:28:33;131.63;;;58.70;;
80930;SDS011;70388;42.698;23.324;2023-12-20T08:30:59;137.65;;;57.78;;
80930;SDS011;70388;42.698;23.324;2023-12-20T08:33:25;133.32;;;56.22;;
80930;SDS011;70388;42.698;23.324;2023-12-20T08:35:51;148.13;;;58.35;;
80930;SDS011;70388;42.698;23.324;2023-12-20T08:38:17;140.32;;;60.70;;
80930;SDS011;70388;42.698;23.324;2023-12-20T08:40:43;142.43;;;59.20;;
80930;SDS011;70388;42.698;23.324;2023-12-20T08:43:09;140.32;;;60.03;;
80930;SDS011;70388;42.698;23.324;2023-12-20T08:45:35;156.82;;;67.65;;
80930;SDS011;70388;42.698;23.324;2023-12-20T08:48:01;157.90;;;67.85;;
80930;SDS011;70388;42.698;23.324;2023-12-20T08:50:28;158.88;;;68.13;;
80930;SDS011;70388;42.698;23.324;2023-12-20T08:52:54;170.05;;;68.72;;
80930;SDS011;70388;42.698;23.324;2023-12-20T08:55:20;163.35;;;68.25;;
80930;SDS011;70388;42.698;23.324;2023-12-20T08:57:46;159.48;;;68.68;;
80930;SDS011;70388;42.698;23.324;2023-12-20T09:00:12;229.73;;;90.50;;
80930;SDS011;70388;42.698;23.324;2023-12-20T09:02:38;183.48;;;72.13;;
80930;SDS011;70388;42.698;23.324;2023-12-20T09:05:04;166.50;;;72.32;;
80930;SDS011;70388;42.698;23.324;2023-12-20T09:07:30;162.35;;;68.60;;
80930;SDS011;70388;42.698;23.324;2023-12-20T09:09:56;165.10;;;69.55;;
80930;SDS011;70388;42.698;23.324;2023-12-20T09:12:23;167.55;;;70.85;;
80930;SDS011;70388;42.698;23.324;2023-12-20T09:14:49;144.30;;;65.68;;
80930;SDS011;70388;42.698;23.324;2023-12-20T09:17:15;171.65;;;72.95;;
80930;SDS011;70388;42.698;23.324;2023-12-20T09:19:42;156.20;;;70.13;;
80930;SDS011;70388;42.698;23.324;2023-12-20T09:22:11;154.90;;;69.07;;
80930;SDS011;70388;42.698;23.324;2023-12-20T09:24:38;138.80;;;63.58;;
80930;SDS011;70388;42.698;23.324;2023-12-20T09:27:04;153.30;;;69.28;;
80930;SDS011;70388;42.698;23.324;2023-12-20T09:29:30;153.32;;;68.90;;
80930;SDS011;70388;42.698;23.324;2023-12-20T09:31:56;145.07;;;65.35;;
80930;SDS011;70388;42.698;23.324;2023-12-20T09:34:23;138.02;;;67.32;;
80930;SDS011;70388;42.698;23.324;2023-12-20T09:36:50;135.48;;;64.95;;
80930;SDS011;70388;42.698;23.324;2023-12-20T09:39:17;170.18;;;74.07;;
80930;SDS011;70388;42.698;23.324;2023-12-20T09:42:06;144.98;;;64.25;;
80930;SDS011;70388;42.698;23.324;2023-12-20T09:44:32;133.32;;;61.55;;
80930;SDS011;70388;42.698;23.324;2023-12-20T09:47:02;146.65;;;61.92;;
80930;SDS011;70388;42.698;23.324;2023-12-20T09:49:29;143.85;;;63.70;;
80930;SDS011;70388;42.698;23.324;2023-12-20T09:51:55;138.55;;;60.78;;
80930;SDS011;70388;42.698;23.324;2023-12-20T09:54:22;139.43;;;65.30;;
80930;SDS011;70388;42.698;23.324;2023-12-20T09:56:49;148.50;;;66.55;;
80930;SDS011;70388;42.698;23.324;2023-12-20T09:59:15;162.38;;;70.53;;
80930;SDS011;70388;42.698;23.324;2023-12-20T10:01:41;168.68;;;72.82;;
80930;SDS011;70388;42.698;23.324;2023-12-20T10:04:08;168.90;;;71.35;;
80930;SDS011;70388;42.698;23.324;2023-12-20T10:06:43;195.13;;;79.20;;
80930;SDS011;70388;42.698;23.324;2023-12-20T10:09:10;170.57;;;72.35;;
80930;SDS011;70388;42.698;23.324;2023-12-20T10:11:37;172.20;;;71.97;;
80930;SDS011;70388;42.698;23.324;2023-12-20T10:14:04;169.38;;;79.72;;
80930;SDS011;70388;42.698;23.324;2023-12-20T10:16:31;160.52;;;71.00;;
80930;SDS011;70388;42.698;23.324;2023-12-20T10:18:58;155.48;;;67.05;;
80930;SDS011;70388;42.698;23.324;2023-12-20T10:21:25;172.90;;;72.65;;
80930;SDS011;70388;42.698;23.324;2023-12-20T10:23:54;173.27;;;72.57;;
80930;SDS011;70388;42.698;23.324;2023-12-20T10:26:21;159.25;;;73.15;;
80930;SDS011;70388;42.698;23.324;2023-12-20T10:28:52;160.48;;;69.20;;
80930;SDS011;70388;42.698;23.324;2023-12-20T10:31:52;152.57;;;69.50;;
80930;SDS011;70388;42.698;23.324;2023-12-20T10:34:11;168.05;;;74.75;;
80930;SDS011;70388;42.698;23.324;2023-12-20T10:36:37;156.25;;;74.25;;
80930;SDS011;70388;42.698;23.324;2023-12-20T10:39:02;178.65;;;81.28;;
80930;SDS011;70388;42.698;23.324;2023-12-20T10:41:32;170.43;;;76.07;;
80930;SDS011;70388;42.698;23.324;2023-12-20T10:43:59;185.57;;;84.68;;
80930;SDS011;70388;42.698;23.324;2023-12-20T10:46:28;182.65;;;76.70;;
80930;SDS011;70388;42.698;23.324;2023-12-20T10:48:55;186.60;;;82.70;;
80930;SDS011;70388;42.698;23.324;2023-12-20T10:51:22;175.45;;;78.63;;
80930;SDS011;70388;42.698;23.324;2023-12-20T10:53:51;182.00;;;76.53;;
80930;SDS011;70388;42.698;23.324;2023-12-20T10:56:18;178.30;;;75.13;;
80930;SDS011;70388;42.698;23.324;2023-12-20T10:58:45;178.52;;;77.20;;
80930;SDS011;70388;42.698;23.324;2023-12-20T11:01:12;168.20;;;74.10;;
80930;SDS011;70388;42.698;23.324;2023-12-20T11:03:41;171.48;;;72.38;;
80930;SDS011;70388;42.698;23.324;2023-12-20T11:09:48;169.38;;;69.68;;
80930;SDS011;70388;42.698;23.324;2023-12-20T11:14:41;152.80;;;63.70;;
80930;SDS011;70388;42.698;23.324;2023-12-20T11:17:12;152.13;;;65.50;;
80930;SDS011;70388;42.698;23.324;2023-12-20T11:22:26;145.60;;;63.28;;
80930;SDS011;70388;42.698;23.324;2023-12-20T11:24:58;147.00;;;62.50;;
80930;SDS011;70388;42.698;23.324;2023-12-20T11:27:33;159.52;;;65.70;;
80930;SDS011;70388;42.698;23.324;2023-12-20T11:29:59;151.45;;;66.65;;
80930;SDS011;70388;42.698;23.324;2023-12-20T11:32:32;172.68;;;69.70;;
80930;SDS011;70388;42.698;23.324;2023-12-20T11:35:20;169.52;;;69.57;;
80930;SDS011;70388;42.698;23.324;2023-12-20T11:37:46;160.20;;;66.22;;
80930;SDS011;70388;42.698;23.324;2023-12-20T11:40:15;151.85;;;62.47;;
80930;SDS011;70388;42.698;23.324;2023-12-20T11:42:42;151.70;;;63.67;;
80930;SDS011;70388;42.698;23.324;2023-12-20T11:45:14;153.18;;;63.22;;
80930;SDS011;70388;42.698;23.324;2023-12-20T11:47:51;155.23;;;60.15;;
80930;SDS011;70388;42.698;23.324;2023-12-20T11:50:19;152.52;;;62.03;;
80930;SDS011;70388;42.698;23.324;2023-12-20T11:52:46;136.85;;;58.80;;
80930;SDS011;70388;42.698;23.324;2023-12-20T11:55:12;153.63;;;64.03;;
80930;SDS011;70388;42.698;23.324;2023-12-20T11:57:38;156.07;;;63.53;;
80930;SDS011;70388;42.698;23.324;2023-12-20T12:00:04;153.10;;;64.38;;
80930;SDS011;70388;42.698;23.324;2023-12-20T12:02:31;159.52;;;65.18;;
80930;SDS011;70388;42.698;23.324;2023-12-20T12:04:57;146.43;;;64.80;;
80930;SDS011;70388;42.698;23.324;2023-12-20T12:07:24;154.48;;;66.25;;
80930;SDS011;70388;42.698;23.324;2023-12-20T12:09:50;150.90;;;66.97;;
80930;SDS011;70388;42.698;23.324;2023-12-20T12:12:16;146.57;;;62.40;;
80930;SDS011;70388;42.698;23.324;2023-12-20T12:14:44;161.38;;;62.65;;
80930;SDS011;70388;42.698;23.324;2023-12-20T12:17:13;156.88;;;66.55;;
80930;SDS011;70388;42.698;23.324;2023-12-20T12:19:40;154.18;;;68.68;;
80930;SDS011;70388;42.698;23.324;2023-12-20T12:22:13;177.68;;;68.78;;
80930;SDS011;70388;42.698;23.324;2023-12-20T12:24:41;159.35;;;64.03;;
80930;SDS011;70388;42.698;23.324;2023-12-20T12:27:06;161.00;;;68.25;;
80930;SDS011;70388;42.698;23.324;2023-12-20T12:29:33;148.50;;;65.18;;
80930;SDS011;70388;42.698;23.324;2023-12-20T12:32:00;166.80;;;68.80;;
80930;SDS011;70388;42.698;23.324;2023-12-20T12:34:28;162.45;;;67.18;;
80930;SDS011;70388;42.698;23.324;2023-12-20T12:36:54;162.25;;;67.85;;
80930;SDS011;70388;42.698;23.324;2023-12-20T12:39:22;150.38;;;66.35;;
80930;SDS011;70388;42.698;23.324;2023-12-20T12:41:50;150.95;;;63.40;;
80930;SDS011;70388;42.698;23.324;2023-12-20T12:44:16;151.20;;;63.45;;
80930;SDS011;70388;42.698;23.324;2023-12-20T12:46:43;146.02;;;64.05;;
80930;SDS011;70388;42.698;23.324;2023-12-20T12:49:12;144.90;;;62.10;;
80930;SDS011;70388;42.698;23.324;2023-12-20T12:51:38;148.10;;;63.33;;
80930;SDS011;70388;42.698;23.324;2023-12-20T12:54:03;146.77;;;61.53;;
80930;SDS011;70388;42.698;23.324;2023-12-20T12:56:29;143.25;;;60.97;;
80930;SDS011;70388;42.698;23.324;2023-12-20T12:58:55;147.18;;;61.65;;
80930;SDS011;70388;42.698;23.324;2023-12-20T13:01:21;139.38;;;57.70;;
80930;SDS011;70388;42.698;23.324;2023-12-20T13:03:47;137.43;;;57.95;;
80930;SDS011;70388;42.698;23.324;2023-12-20T13:06:13;139.20;;;62.15;;
80930;SDS011;70388;42.698;23.324;2023-12-20T13:08:39;135.98;;;61.17;;
80930;SDS011;70388;42.698;23.324;2023-12-20T13:11:04;133.23;;;59.10;;
80930;SDS011;70388;42.698;23.324;2023-12-20T13:13:30;136.43;;;61.22;;
80930;SDS011;70388;42.698;23.324;2023-12-20T13:15:56;140.52;;;59.47;;
80930;SDS011;70388;42.698;23.324;2023-12-20T13:18:22;142.98;;;62.50;;
80930;SDS011;70388;42.698;23.324;2023-12-20T13:20:48;148.13;;;59.85;;
80930;SDS011;70388;42.698;23.324;2023-12-20T13:23:14;153.55;;;66.15;;
80930;SDS011;70388;42.698;23.324;2023-12-20T13:25:43;145.65;;;62.72;;
80930;SDS011;70388;42.698;23.324;2023-12-20T13:28:10;156.60;;;64.43;;
80930;SDS011;70388;42.698;23.324;2023-12-20T13:30:37;142.05;;;61.35;;
80930;SDS011;70388;42.698;23.324;2023-12-20T13:33:03;137.18;;;57.50;;
80930;SDS011;70388;42.698;23.324;2023-12-20T13:35:30;141.35;;;57.50;;
80930;SDS011;70388;42.698;23.324;2023-12-20T13:37:57;123.65;;;54.47;;
80930;SDS011;70388;42.698;23.324;2023-12-20T13:40:23;131.48;;;54.42;;
80930;SDS011;70388;42.698;23.324;2023-12-20T13:42:48;120.15;;;49.33;;
80930;SDS011;70388;42.698;23.324;2023-12-20T13:45:14;123.55;;;52.70;;
80930;SDS011;70388;42.698;23.324;2023-12-20T13:47:40;123.28;;;49.03;;
80930;SDS011;70388;42.698;23.324;2023-12-20T13:50:06;129.27;;;50.92;;
80930;SDS011;70388;42.698;23.324;2023-12-20T13:52:32;141.68;;;53.95;;
80930;SDS011;70388;42.698;23.324;2023-12-20T13:54:58;125.35;;;51.53;;
80930;SDS011;70388;42.698;23.324;2023-12-20T13:57:24;140.20;;;53.90;;
80930;SDS011;70388;42.698;23.324;2023-12-20T13:59:49;149.98;;;53.97;;
80930;SDS011;70388;42.698;23.324;2023-12-20T14:02:15;130.63;;;54.78;;